Time;durP1;ratioP1;P1;durP2;ratioP2;P2;SDS_P1;SDS_P2;PMS_P1;PMS_P2;Temp;Humidity;BMP_temperature;BMP_pressure;BME280_temperature;BME280_humidity;BME280_pressure;Samples;Min_cycle;Max_cycle;Signal;HPM_P1;HPM_P2
2022/08/23 00:02:02;;;;;;;16.02;8.32;;;;;;;18.38;97.74;94092.22;5089625;28;20199;-72
2022/08/23 00:04:32;;;;;;;16.30;8.93;;;;;;;18.36;98.24;94103.59;5089907;28;20339;-72
2022/08/23 00:06:59;;;;;;;16.50;7.40;;;;;;;18.28;98.70;94093.78;5089407;28;20646;-72
2022/08/23 00:09:28;;;;;;;15.00;8.52;;;;;;;18.33;99.14;94107.09;5089305;28;20198;-72
2022/08/23 00:12:06;;;;;;;18.08;8.55;;;;;;;18.30;99.26;94105.16;5088612;28;20218;-72
2022/08/23 00:14:35;;;;;;;15.70;8.82;;;;;;;18.29;100.00;94106.34;5089251;28;20192;-71
2022/08/23 00:17:02;;;;;;;17.23;8.63;;;;;;;18.35;99.90;94104.75;5088991;28;20243;-71
2022/08/23 00:19:29;;;;;;;17.00;7.72;;;;;;;18.28;97.81;94103.97;5089542;28;20206;-71
2022/08/23 00:21:56;;;;;;;11.38;7.47;;;;;;;18.25;96.83;94108.28;5089096;28;20199;-71
2022/08/23 00:24:25;;;;;;;13.13;7.47;;;;;;;18.17;97.33;94098.47;5089128;28;20259;-72
2022/08/23 00:26:56;;;;;;;14.10;6.97;;;;;;;18.01;98.66;94106.25;5089019;28;20221;-72
2022/08/23 00:29:26;;;;;;;13.80;7.38;;;;;;;17.95;98.55;94096.84;5089449;28;20255;-72
2022/08/23 00:31:53;;;;;;;11.27;7.07;;;;;;;17.87;99.29;94100.75;5089572;28;20210;-72
2022/08/23 00:34:20;;;;;;;13.90;7.35;;;;;;;17.82;99.60;94101.88;5088752;28;20203;-70
2022/08/23 00:36:48;;;;;;;16.30;8.48;;;;;;;17.75;100.00;94113.63;5088506;28;20693;-72
2022/08/23 00:39:15;;;;;;;12.90;7.70;;;;;;;17.72;100.00;94108.91;5089240;28;20198;-72
2022/08/23 00:41:44;;;;;;;11.50;7.65;;;;;;;17.81;100.00;94102.28;5089161;28;20898;-72
2022/08/23 00:49:50;;;;;;;15.63;8.38;;;;;;;17.77;100.00;94094.03;5088926;28;20239;-70
2022/08/23 00:52:23;;;;;;;17.92;9.05;;;;;;;17.72;100.00;94099.91;5089597;28;20252;-72
2022/08/23 00:54:53;;;;;;;17.45;7.18;;;;;;;17.77;100.00;94104.22;5088879;28;20194;-70
2022/08/23 00:57:21;;;;;;;15.43;9.43;;;;;;;17.82;100.00;94099.16;5089522;28;20634;-72
2022/08/23 00:59:50;;;;;;;17.02;9.13;;;;;;;17.86;100.00;94110.13;5089463;28;20240;-72
2022/08/23 01:02:17;;;;;;;15.80;9.20;;;;;;;17.85;100.00;94105.81;5089160;28;20661;-72
2022/08/23 01:04:50;;;;;;;16.17;8.15;;;;;;;17.81;100.00;94097.56;5088620;28;20687;-71
2022/08/23 01:07:31;;;;;;;18.27;8.82;;;;;;;17.82;100.00;94104.63;5091082;28;20210;-71
2022/08/23 01:10:02;;;;;;;11.98;7.13;;;;;;;17.88;100.00;94099.56;5092951;28;20229;-71
2022/08/23 01:12:35;;;;;;;20.30;9.30;;;;;;;17.89;100.00;94099.19;5092557;28;20222;-70
2022/08/23 01:15:10;;;;;;;12.52;7.93;;;;;;;17.92;100.00;94101.13;5092115;28;20193;-72
2022/08/23 01:17:40;;;;;;;15.63;7.95;;;;;;;17.89;100.00;94098.41;5092351;28;20298;-72
2022/08/23 01:20:11;;;;;;;12.00;6.82;;;;;;;17.98;100.00;94101.56;5092414;28;20248;-72
2022/08/23 01:22:43;;;;;;;16.65;8.73;;;;;;;18.01;100.00;94114.50;5092508;28;20277;-71
2022/08/23 01:25:15;;;;;;;13.43;7.93;;;;;;;18.03;100.00;94114.91;5092187;28;21014;-70
2022/08/23 01:27:44;;;;;;;13.95;7.43;;;;;;;18.02;100.00;94105.88;5092565;28;20210;-71
2022/08/23 01:30:13;;;;;;;13.15;7.40;;;;;;;18.05;100.00;94107.03;5092334;28;20197;-71
2022/08/23 01:32:45;;;;;;;17.25;9.55;;;;;;;18.07;100.00;94104.69;5092086;28;20686;-70
2022/08/23 01:35:12;;;;;;;16.13;9.10;;;;;;;18.06;100.00;94103.13;5091956;28;20202;-71
2022/08/23 01:37:39;;;;;;;13.18;7.60;;;;;;;18.04;100.00;94109.00;5091855;28;20202;-71
2022/08/23 01:40:07;;;;;;;15.10;8.45;;;;;;;18.07;100.00;94096.47;5092048;28;20214;-71
2022/08/23 01:42:35;;;;;;;17.65;8.25;;;;;;;18.09;100.00;94103.16;5092215;28;20198;-71
2022/08/23 01:45:02;;;;;;;19.98;9.10;;;;;;;18.02;100.00;94096.88;5092113;28;20257;-70
2022/08/23 01:47:30;;;;;;;17.52;8.52;;;;;;;18.11;100.00;94119.22;5091267;28;20963;-71
2022/08/23 01:49:57;;;;;;;16.08;7.80;;;;;;;18.13;100.00;94114.13;5091907;28;20271;-72
2022/08/23 01:52:24;;;;;;;13.05;7.10;;;;;;;18.10;100.00;94114.91;5092123;28;20206;-72
2022/08/23 01:54:51;;;;;;;16.60;9.57;;;;;;;18.08;100.00;94117.22;5091830;28;20249;-72
2022/08/23 01:57:18;;;;;;;17.92;9.13;;;;;;;18.01;100.00;94103.53;5091476;28;20210;-73
2022/08/23 01:59:46;;;;;;;15.68;9.32;;;;;;;17.97;100.00;94106.25;5091829;28;20210;-72
2022/08/23 02:02:13;;;;;;;19.85;9.23;;;;;;;17.96;100.00;94101.16;5091622;28;20644;-72
2022/08/23 02:04:40;;;;;;;19.33;9.48;;;;;;;17.93;100.00;94101.91;5091040;28;20206;-72
2022/08/23 02:07:07;;;;;;;18.73;10.63;;;;;;;17.89;100.00;94101.16;5090770;28;20598;-71
2022/08/23 02:09:34;;;;;;;15.30;8.98;;;;;;;17.86;100.00;94105.44;5090886;28;20263;-71
2022/08/23 02:12:00;;;;;;;14.80;8.30;;;;;;;17.84;100.00;94101.50;5091275;28;20214;-71
2022/08/23 02:14:27;;;;;;;15.43;8.75;;;;;;;17.83;100.00;94105.41;5091274;28;20206;-71
2022/08/23 02:16:57;;;;;;;12.80;7.47;;;;;;;17.82;100.00;94104.63;5091097;28;20222;-71
2022/08/23 02:19:24;;;;;;;13.20;7.53;;;;;;;17.87;100.00;94106.22;5077202;28;20289;-71
2022/08/23 02:21:52;;;;;;;20.05;8.73;;;;;;;17.96;100.00;94104.69;5091036;28;20206;-71
2022/08/23 02:24:20;;;;;;;24.42;8.50;;;;;;;18.02;100.00;94096.88;5077208;28;20683;-71
2022/08/23 02:26:51;;;;;;;12.85;7.30;;;;;;;18.08;100.00;94100.78;5091164;28;20198;-71
2022/08/23 02:29:20;;;;;;;10.68;5.22;;;;;;;18.26;97.40;94090.66;5090549;28;20231;-71
2022/08/23 02:31:47;;;;;;;14.15;7.55;;;;;;;18.39;96.10;94083.63;5090566;28;20202;-71
2022/08/23 02:34:17;;;;;;;10.20;5.65;;;;;;;18.69;91.12;94080.53;5090766;28;20607;-70
2022/08/23 02:36:44;;;;;;;13.57;5.80;;;;;;;18.87;90.24;94091.47;5090676;28;20259;-71
2022/08/23 02:39:13;;;;;;;9.48;5.22;;;;;;;19.00;88.50;94095.38;5091243;28;20206;-70
2022/08/23 02:41:40;;;;;;;7.45;5.07;;;;;;;19.10;86.92;94088.34;5091248;28;20252;-71
2022/08/23 02:44:07;;;;;;;8.57;5.38;;;;;;;19.11;87.22;94085.19;5091387;28;20202;-72
2022/08/23 02:46:35;;;;;;;8.50;4.32;;;;;;;19.09;88.00;94087.56;5091424;28;20198;-73
2022/08/23 02:49:02;;;;;;;10.10;5.28;;;;;;;19.03;88.43;94094.59;5090390;28;20825;-71
2022/08/23 02:51:30;;;;;;;6.65;4.65;;;;;;;18.99;88.85;94093.84;5090652;28;20252;-71
2022/08/23 02:53:57;;;;;;;5.75;3.55;;;;;;;18.99;88.49;94093.84;5090437;28;20617;-75
2022/08/23 02:56:24;;;;;;;6.47;4.43;;;;;;;19.01;87.83;94096.97;5090355;28;20702;-73
2022/08/23 02:58:51;;;;;;;9.25;4.82;;;;;;;18.98;88.11;94086.78;5090162;28;20689;-70
2022/08/23 03:01:19;;;;;;;10.18;6.00;;;;;;;18.97;87.83;94084.44;5089973;28;20228;-71
2022/08/23 03:03:46;;;;;;;8.70;5.28;;;;;;;18.92;87.98;94091.09;5090596;28;20247;-71
2022/08/23 03:06:14;;;;;;;8.07;4.95;;;;;;;18.88;88.14;94086.78;5090055;28;20209;-72
2022/08/23 03:08:43;;;;;;;7.95;5.50;;;;;;;18.72;88.10;94078.97;5090196;28;20222;-72
2022/08/23 03:11:12;;;;;;;10.30;5.03;;;;;;;18.76;88.00;94079.72;5090248;28;20244;-71
2022/08/23 03:13:40;;;;;;;7.40;4.47;;;;;;;18.80;87.07;94070.34;5090356;28;20225;-71
2022/08/23 03:16:09;;;;;;;7.45;4.95;;;;;;;18.82;87.05;94075.44;5090243;28;20255;-71
2022/08/23 03:18:36;;;;;;;6.63;3.92;;;;;;;18.86;86.18;94076.19;5089899;28;20627;-71
2022/08/23 03:21:04;;;;;;;6.93;3.83;;;;;;;18.95;85.26;94081.28;5076747;28;20202;-70
2022/08/23 03:23:31;;;;;;;9.25;4.43;;;;;;;19.09;84.30;94073.81;5090069;28;20276;-70
2022/08/23 03:26:01;;;;;;;7.85;4.47;;;;;;;19.08;84.55;94069.50;5090088;28;20256;-70
2022/08/23 03:28:28;;;;;;;5.85;3.95;;;;;;;19.06;84.89;94077.34;5089769;28;20738;-71
2022/08/23 03:30:56;;;;;;;5.18;3.53;;;;;;;18.99;85.42;94071.88;5089807;28;20209;-70
2022/08/23 03:33:23;;;;;;;7.30;4.70;;;;;;;18.88;86.35;94078.53;5089829;28;20734;-71
2022/08/23 03:35:50;;;;;;;6.97;4.32;;;;;;;18.76;87.27;94080.53;5090174;28;20213;-70
2022/08/23 03:38:18;;;;;;;6.53;4.18;;;;;;;18.70;87.43;94075.84;5089496;28;20202;-70
2022/08/23 03:40:45;;;;;;;6.38;3.67;;;;;;;18.74;87.10;94084.81;5090083;28;20286;-70
2022/08/23 03:43:13;;;;;;;6.00;3.75;;;;;;;18.70;87.24;94092.28;5089643;28;20202;-70
2022/08/23 03:45:40;;;;;;;4.93;3.65;;;;;;;18.77;86.53;94098.56;5089620;28;20216;-72
2022/08/23 03:48:07;;;;;;;7.32;4.30;;;;;;;18.80;85.72;94097.00;5089612;28;20229;-72
2022/08/23 03:50:34;;;;;;;6.93;4.53;;;;;;;18.89;84.73;94102.84;5089449;28;20206;-72
2022/08/23 03:53:02;;;;;;;4.95;3.38;;;;;;;18.97;82.68;94109.94;5089418;28;20629;-76
2022/08/23 03:55:28;;;;;;;5.53;2.97;;;;;;;19.07;82.25;94120.09;5089953;28;20198;-71
2022/08/23 03:57:55;;;;;;;7.72;3.63;;;;;;;19.03;83.48;94122.06;5089939;28;20276;-72
2022/08/23 04:00:23;;;;;;;4.40;3.25;;;;;;;18.99;83.79;94126.78;5089772;28;20732;-71
2022/08/23 04:02:50;;;;;;;6.85;4.13;;;;;;;18.94;84.88;94131.88;5089975;28;20255;-71
2022/08/23 04:05:17;;;;;;;5.80;3.67;;;;;;;18.88;85.13;94131.47;5089935;28;20260;-72
2022/08/23 04:07:44;;;;;;;5.60;3.67;;;;;;;18.86;85.26;94133.81;5089307;28;20225;-69
2022/08/23 04:10:13;;;;;;;6.70;4.07;;;;;;;18.83;86.64;94140.13;5089659;28;20256;-69
2022/08/23 04:12:40;;;;;;;8.23;4.88;;;;;;;18.71;88.29;94146.00;5088884;28;20309;-72
2022/08/23 04:15:08;;;;;;;10.35;5.30;;;;;;;18.71;89.31;94148.75;5089206;28;20232;-72
2022/08/23 04:17:36;;;;;;;11.35;5.60;;;;;;;18.66;89.73;94154.59;5089071;28;20313;-72
2022/08/23 04:20:04;;;;;;;10.50;5.65;;;;;;;18.66;89.66;94157.34;5089525;28;20554;-71
2022/08/23 04:22:32;;;;;;;9.55;5.43;;;;;;;18.66;90.36;94162.84;5088780;28;20702;-72
2022/08/23 04:24:59;;;;;;;8.93;5.32;;;;;;;18.53;90.65;94147.91;5089323;28;20255;-70
2022/08/23 04:27:25;;;;;;;11.00;6.07;;;;;;;18.46;91.81;94156.88;5089213;28;20696;-71
2022/08/23 04:29:52;;;;;;;11.68;6.40;;;;;;;18.32;93.09;94163.13;5089136;28;20263;-70
2022/08/23 04:32:19;;;;;;;11.30;5.85;;;;;;;18.31;93.72;94164.28;5089261;28;20620;-72
2022/08/23 04:34:48;;;;;;;9.82;5.88;;;;;;;18.39;93.20;94160.41;5089026;28;20237;-70
2022/08/23 04:37:16;;;;;;;12.70;6.70;;;;;;;18.42;92.93;94170.59;5088959;28;20293;-70
2022/08/23 04:42:28;;;;;;;12.70;6.95;;;;;;;18.43;92.79;94168.66;5080367;28;20205;-71
2022/08/23 04:44:56;;;;;;;13.82;9.40;;;;;;;18.48;92.88;94169.03;5092178;28;20287;-70
2022/08/23 04:47:23;;;;;;;15.10;7.25;;;;;;;18.57;92.25;94170.66;5092421;28;20198;-70
2022/08/23 04:49:51;;;;;;;8.38;5.72;;;;;;;18.54;91.61;94172.19;5092335;28;20240;-71
2022/08/23 04:52:18;;;;;;;12.25;6.60;;;;;;;18.49;92.17;94169.81;5092495;28;20202;-70
2022/08/23 04:54:45;;;;;;;13.07;6.93;;;;;;;18.54;91.99;94171.41;5092579;28;20206;-70
2022/08/23 04:57:14;;;;;;;10.48;6.00;;;;;;;18.58;91.12;94173.03;5093320;28;20203;-71
2022/08/23 04:59:41;;;;;;;12.98;7.28;;;;;;;18.62;90.87;94178.50;5092773;28;20224;-71
2022/08/23 05:02:08;;;;;;;14.48;7.63;;;;;;;18.67;90.54;94175.38;5092693;28;20271;-70
2022/08/23 05:04:35;;;;;;;12.40;7.10;;;;;;;18.89;90.36;94176.97;5092794;28;20209;-70
2022/08/23 05:07:03;;;;;;;15.25;7.78;;;;;;;19.31;88.63;94186.38;5092982;28;20607;-70
2022/08/23 05:09:30;;;;;;;16.45;11.43;;;;;;;19.29;88.19;94189.50;5092023;28;20261;-71
2022/08/23 05:11:57;;;;;;;18.77;11.75;;;;;;;19.37;87.39;94190.31;5092702;28;20670;-70
2022/08/23 05:14:24;;;;;;;16.25;8.48;;;;;;;19.74;86.90;94190.66;5092706;28;20271;-70
2022/08/23 05:16:51;;;;;;;11.57;7.18;;;;;;;20.03;85.92;94196.06;5092307;28;20234;-70
2022/08/23 05:19:17;;;;;;;12.95;7.38;;;;;;;20.31;84.35;94200.69;5092654;28;20198;-70
2022/08/23 05:21:44;;;;;;;12.23;7.18;;;;;;;20.54;82.89;94207.28;5092430;28;20202;-70
2022/08/23 05:24:13;;;;;;;19.20;9.23;;;;;;;20.39;81.95;94211.28;5091726;28;20199;-71
2022/08/23 05:26:39;;;;;;;10.38;6.88;;;;;;;19.87;84.94;94219.28;5092250;28;20210;-70
2022/08/23 05:29:06;;;;;;;11.57;8.30;;;;;;;20.39;83.45;94216.78;5091906;28;20622;-70
2022/08/23 05:31:33;;;;;;;10.43;6.45;;;;;;;21.23;79.74;94203.69;5091875;28;20218;-70
2022/08/23 05:34:00;;;;;;;9.25;6.93;;;;;;;21.88;76.36;94204.69;5091925;28;20203;-70
2022/08/23 05:36:27;;;;;;;11.23;7.80;;;;;;;22.15;74.48;94202.03;5092230;28;20206;-70
2022/08/23 05:38:55;;;;;;;13.30;6.20;;;;;;;23.88;68.71;94200.72;5091749;28;20208;-70
2022/08/23 05:41:23;;;;;;;11.40;8.05;;;;;;;25.66;62.88;94183.09;5091861;28;20206;-71
2022/08/23 05:43:50;;;;;;;10.63;7.47;;;;;;;26.13;62.05;94194.53;5092131;28;20202;-72
2022/08/23 05:46:19;;;;;;;11.80;8.57;;;;;;;25.92;61.23;94184.78;5091857;28;20213;-71
2022/08/23 05:48:49;;;;;;;11.45;9.18;;;;;;;25.08;63.20;94197.50;5091124;28;20232;-71
2022/08/23 05:51:19;;;;;;;13.05;9.68;;;;;;;24.92;64.08;94191.91;5091736;28;20202;-71
2022/08/23 05:53:48;;;;;;;13.50;8.93;;;;;;;25.37;61.91;94192.09;5090443;28;20202;-71
2022/08/23 05:56:20;;;;;;;11.57;8.05;;;;;;;26.04;60.06;94197.94;5091498;28;20619;-71
2022/08/23 05:58:52;;;;;;;12.45;7.88;;;;;;;26.37;58.98;94192.31;5091699;28;20190;-71
2022/08/23 06:01:19;;;;;;;14.02;9.52;;;;;;;26.86;57.80;94198.44;5091667;28;20210;-71
2022/08/23 06:03:47;;;;;;;16.92;9.32;;;;;;;28.34;54.03;94199.63;5091458;28;20210;-71
2022/08/23 06:06:15;;;;;;;12.05;8.20;;;;;;;28.22;53.66;94198.44;5090414;28;20195;-71
2022/08/23 06:08:44;;;;;;;12.45;8.48;;;;;;;28.79;52.44;94202.00;5090953;28;20210;-72
2022/08/23 06:11:13;;;;;;;13.88;9.40;;;;;;;29.85;48.93;94199.81;5090594;28;20252;-71
2022/08/23 06:13:42;;;;;;;13.40;9.43;;;;;;;29.91;47.77;94206.34;5091421;28;20256;-71
2022/08/23 06:16:12;;;;;;;16.30;10.85;;;;;;;28.76;51.12;94203.66;5090767;28;20198;-72
2022/08/23 06:18:39;;;;;;;13.68;10.52;;;;;;;29.88;49.65;94201.69;5090633;28;20195;-71
2022/08/23 06:21:07;;;;;;;17.25;10.65;;;;;;;28.96;50.83;94209.69;5091109;28;20206;-71
2022/08/23 06:23:34;;;;;;;14.60;11.10;;;;;;;29.89;49.28;94215.19;5090990;28;20710;-72
2022/08/23 06:26:02;;;;;;;16.75;11.82;;;;;;;30.55;46.97;94214.84;5090438;28;20202;-72
2022/08/23 06:28:31;;;;;;;14.38;10.82;;;;;;;30.94;46.18;94216.66;5090643;28;20198;-71
2022/08/23 06:30:57;;;;;;;13.48;11.00;;;;;;;29.04;49.67;94229.72;5090437;28;20194;-70
2022/08/23 06:33:26;;;;;;;16.98;11.52;;;;;;;28.93;51.03;94235.72;5089962;28;20541;-70
2022/08/23 06:36:03;;;;;;;15.02;10.63;;;;;;;29.51;50.05;94223.94;5090470;28;20281;-72
2022/08/23 06:38:30;;;;;;;18.45;11.55;;;;;;;28.80;52.03;94220.28;5087714;28;20183;-71
2022/08/23 06:41:00;;;;;;;14.52;11.13;;;;;;;27.86;53.88;94226.72;5090623;28;20194;-71
2022/08/23 06:43:28;;;;;;;13.13;10.30;;;;;;;26.98;55.46;94225.50;5087314;28;20678;-71
2022/08/23 06:45:54;;;;;;;14.07;9.65;;;;;;;26.59;56.41;94236.94;5090745;28;20260;-71
2022/08/23 06:48:21;;;;;;;12.73;9.18;;;;;;;25.95;59.07;94244.97;5089824;28;20198;-71
2022/08/23 06:50:49;;;;;;;14.07;10.75;;;;;;;24.93;61.71;94253.66;5090120;28;20280;-71
2022/08/23 06:53:16;;;;;;;15.13;10.60;;;;;;;24.74;63.06;94253.25;5089960;28;20198;-71
2022/08/23 06:55:43;;;;;;;13.23;10.23;;;;;;;25.00;63.14;94248.00;5090359;28;20720;-70
2022/08/23 06:58:10;;;;;;;12.98;10.35;;;;;;;24.77;63.89;94263.47;5089348;28;20677;-70
2022/08/23 07:00:37;;;;;;;16.10;11.65;;;;;;;24.58;63.68;94257.97;5089912;28;20238;-71
2022/08/23 07:03:04;;;;;;;13.15;9.95;;;;;;;24.17;65.35;94263.88;5090277;28;20202;-71
2022/08/23 07:05:31;;;;;;;14.15;10.85;;;;;;;24.05;65.77;94252.19;5089795;28;20694;-71
2022/08/23 07:07:59;;;;;;;16.35;11.07;;;;;;;25.02;62.58;94251.09;5089725;28;20201;-71
2022/08/23 07:10:26;;;;;;;14.15;10.48;;;;;;;26.15;59.50;94248.41;5089742;28;20435;-70
2022/08/23 07:12:53;;;;;;;15.02;10.40;;;;;;;27.84;54.49;94248.66;5089623;28;20237;-71
2022/08/23 07:15:20;;;;;;;14.27;9.95;;;;;;;29.32;50.60;94242.59;5090024;28;20263;-71
2022/08/23 07:17:47;;;;;;;15.05;9.90;;;;;;;30.23;48.24;94244.91;5089712;28;20233;-72
2022/08/23 07:20:14;;;;;;;13.02;9.55;;;;;;;29.62;48.58;94241.03;5089161;28;20214;-72
2022/08/23 07:22:41;;;;;;;11.88;9.48;;;;;;;27.50;52.29;94250.09;5089247;28;20668;-72
2022/08/23 07:25:11;;;;;;;14.27;9.90;;;;;;;27.32;54.14;94246.34;5089344;28;20228;-71
2022/08/23 07:27:37;;;;;;;13.20;10.10;;;;;;;28.04;51.16;94246.38;5086052;28;20251;-71
2022/08/23 07:30:06;;;;;;;13.60;9.48;;;;;;;28.53;51.00;94243.16;5090127;28;20222;-71
2022/08/23 07:32:33;;;;;;;12.35;9.20;;;;;;;28.58;51.62;94243.31;5090281;28;20229;-74
2022/08/23 07:34:59;;;;;;;16.42;10.02;;;;;;;27.90;53.14;94253.22;5087532;28;20232;-72
2022/08/23 07:37:27;;;;;;;15.68;10.73;;;;;;;25.43;58.27;94270.78;5089843;28;20209;-71
2022/08/23 07:39:54;;;;;;;13.07;10.07;;;;;;;25.55;59.19;94265.78;5089270;28;20198;-71
2022/08/23 07:42:23;;;;;;;15.98;10.48;;;;;;;25.82;58.32;94263.56;5089513;28;20757;-70
2022/08/23 07:44:50;;;;;;;12.63;9.68;;;;;;;25.80;59.29;94265.97;5088033;28;20272;-71
2022/08/23 07:47:17;;;;;;;13.38;9.77;;;;;;;26.18;58.36;94264.19;5089108;28;20232;-71
2022/08/23 07:49:44;;;;;;;14.88;9.95;;;;;;;26.13;58.69;94259.16;5088687;28;20234;-71
2022/08/23 07:52:11;;;;;;;12.68;9.70;;;;;;;26.04;59.03;94259.00;5088953;28;20203;-71
2022/08/23 07:54:37;;;;;;;12.95;9.65;;;;;;;25.88;59.34;94256.25;5089316;28;20202;-70
2022/08/23 07:57:04;;;;;;;13.07;10.27;;;;;;;25.34;60.31;94265.03;5089508;28;20199;-70
2022/08/23 07:59:32;;;;;;;15.45;10.88;;;;;;;24.85;60.37;94263.34;5088847;28;20616;-70
2022/08/23 08:01:59;;;;;;;13.50;9.93;;;;;;;25.21;61.22;94271.69;5089496;28;20270;-71
2022/08/23 08:04:26;;;;;;;14.10;10.88;;;;;;;25.51;60.36;94279.72;5088834;28;20657;-72
2022/08/23 08:06:53;;;;;;;12.90;10.23;;;;;;;25.62;59.27;94276.72;5089342;28;20198;-71
2022/08/23 08:09:21;;;;;;;13.93;10.95;;;;;;;25.97;58.85;94278.63;5088745;28;20230;-71
2022/08/23 08:11:48;;;;;;;13.57;10.63;;;;;;;26.13;57.98;94266.72;5088843;28;20683;-72
2022/08/23 08:14:17;;;;;;;14.73;11.35;;;;;;;25.98;58.84;94277.41;5089163;28;20262;-71
2022/08/23 08:16:47;;;;;;;15.23;11.23;;;;;;;26.24;57.01;94278.31;5090185;28;20230;-71
2022/08/23 08:19:17;;;;;;;14.63;10.77;;;;;;;26.01;58.50;94287.63;5093108;28;20598;-71
2022/08/23 08:21:45;;;;;;;14.73;10.65;;;;;;;26.02;58.44;94289.22;5092454;28;20212;-71
2022/08/23 08:24:15;;;;;;;14.05;10.85;;;;;;;26.30;57.94;94286.94;5093370;28;20206;-71
2022/08/23 08:26:44;;;;;;;17.50;10.60;;;;;;;26.64;57.72;94273.31;5093263;28;20600;-71
2022/08/23 08:29:12;;;;;;;15.65;11.15;;;;;;;26.45;56.33;94288.13;5092896;28;20323;-71
2022/08/23 08:31:40;;;;;;;14.13;10.85;;;;;;;26.13;57.27;94289.72;5092819;28;20202;-72
2022/08/23 08:34:09;;;;;;;15.07;11.35;;;;;;;25.07;59.21;94286.66;5093010;28;20209;-72
2022/08/23 08:36:39;;;;;;;14.80;10.30;;;;;;;25.56;58.38;94295.09;5092945;28;20206;-72
2022/08/23 08:39:10;;;;;;;14.95;11.15;;;;;;;25.65;58.55;94292.50;5092758;28;20746;-72
2022/08/23 08:41:51;;;;;;;16.05;11.02;;;;;;;25.66;57.86;94289.31;5093265;28;20213;-72
2022/08/23 08:44:26;;;;;;;13.93;10.32;;;;;;;26.20;58.02;94278.44;5093011;28;20190;-73
2022/08/23 08:46:56;;;;;;;16.08;10.43;;;;;;;26.63;57.14;94276.53;5092892;28;20277;-72
2022/08/23 08:49:38;;;;;;;16.45;10.77;;;;;;;26.26;56.82;94280.66;5093012;28;20214;-72
2022/08/23 08:52:14;;;;;;;16.08;10.77;;;;;;;26.59;58.20;94273.06;5093479;28;20281;-72
2022/08/23 08:54:44;;;;;;;15.70;10.95;;;;;;;26.55;57.77;94275.94;5092688;28;20673;-72
2022/08/23 08:57:15;;;;;;;14.38;10.43;;;;;;;26.85;56.75;94267.16;5093008;28;20202;-73
2022/08/23 08:59:50;;;;;;;13.40;10.73;;;;;;;27.02;55.85;94267.09;5092404;28;20195;-72
2022/08/23 09:02:19;;;;;;;14.40;10.82;;;;;;;27.04;55.74;94259.88;5092349;28;20194;-71
2022/08/23 09:04:48;;;;;;;13.15;10.45;;;;;;;27.40;55.29;94254.00;5079598;28;20202;-71
2022/08/23 09:07:23;;;;;;;14.20;11.25;;;;;;;27.50;54.87;94255.66;5092649;28;20263;-73
2022/08/23 09:10:07;;;;;;;16.55;11.73;;;;;;;26.57;59.00;94245.72;5092367;28;20603;-71
2022/08/23 09:12:48;;;;;;;16.60;11.88;;;;;;;26.89;56.80;94239.25;5092726;28;20665;-71
2022/08/23 09:15:26;;;;;;;13.30;10.55;;;;;;;26.41;56.95;94235.44;5085997;28;20217;-71
2022/08/23 09:17:55;;;;;;;14.10;10.40;;;;;;;26.64;57.49;94242.75;5078961;28;20234;-72
2022/08/23 09:20:28;;;;;;;18.38;11.88;;;;;;;26.22;59.05;94246.66;5092342;28;20723;-72
2022/08/23 09:23:06;;;;;;;14.63;11.15;;;;;;;26.37;59.44;94231.22;5092282;28;20278;-72
2022/08/23 09:25:33;;;;;;;13.77;10.55;;;;;;;26.65;58.23;94241.50;5092179;28;20194;-71
2022/08/23 09:28:00;;;;;;;13.13;10.63;;;;;;;26.59;57.36;94243.28;5092223;28;20263;-71
2022/08/23 09:30:47;;;;;;;12.50;10.48;;;;;;;26.34;58.66;94243.19;5092336;28;20234;-72
2022/08/23 09:33:18;;;;;;;15.48;11.52;;;;;;;26.05;60.61;94249.47;5091983;28;20202;-72
2022/08/23 09:36:04;;;;;;;14.27;11.02;;;;;;;25.50;58.09;94256.75;5079368;28;20698;-71
2022/08/23 09:38:36;;;;;;;15.38;10.95;;;;;;;25.76;58.09;94248.63;5091992;28;20637;-72
2022/08/23 09:41:19;;;;;;;14.82;10.93;;;;;;;24.85;59.76;94258.59;5092229;28;20190;-72
2022/08/23 09:43:47;;;;;;;13.95;11.23;;;;;;;25.04;59.40;94259.78;5092345;28;20190;-72
2022/08/23 09:46:25;;;;;;;13.82;10.70;;;;;;;25.32;59.00;94259.16;5091613;28;20244;-70
2022/08/23 09:48:54;;;;;;;16.80;12.25;;;;;;;25.52;59.24;94255.53;5079558;28;20583;-72
2022/08/23 09:51:26;;;;;;;13.43;10.50;;;;;;;25.89;57.70;94255.03;5091430;28;20226;-71
2022/08/23 09:54:04;;;;;;;16.20;11.10;;;;;;;26.29;56.77;94252.06;5091904;28;20197;-71
2022/08/23 09:56:35;;;;;;;13.70;10.80;;;;;;;26.60;56.40;94244.06;5091343;28;20731;-70
2022/08/23 09:59:03;;;;;;;16.45;10.52;;;;;;;26.86;54.74;94249.25;5091244;28;20195;-71
2022/08/23 10:01:33;;;;;;;14.95;11.40;;;;;;;26.48;55.00;94251.13;5091107;28;20237;-71
2022/08/23 10:04:10;;;;;;;15.95;11.75;;;;;;;25.70;57.00;94256.69;5091481;28;20285;-73
2022/08/23 10:06:40;;;;;;;15.63;10.20;;;;;;;26.36;56.48;94246.31;5078995;28;20289;-72
2022/08/23 10:09:10;;;;;;;11.48;9.48;;;;;;;26.85;55.22;94249.69;5091686;28;20287;-72
2022/08/23 10:11:42;;;;;;;13.32;10.07;;;;;;;26.63;54.73;94246.75;5091455;28;20704;-71
2022/08/23 10:14:09;;;;;;;12.80;10.02;;;;;;;27.36;54.18;94250.56;5091214;28;20194;-71
2022/08/23 10:16:41;;;;;;;15.35;10.45;;;;;;;26.89;53.61;94245.59;5090790;28;20309;-72
2022/08/23 10:19:19;;;;;;;13.98;10.52;;;;;;;26.62;54.82;94247.97;5091000;28;20190;-73
2022/08/23 10:21:57;;;;;;;13.38;9.98;;;;;;;26.07;55.68;94247.03;5091052;28;20244;-71
2022/08/23 10:24:34;;;;;;;14.95;10.75;;;;;;;25.89;56.69;94249.47;5078251;28;20190;-71
2022/08/23 10:30:05;;;;;;;10.70;8.07;;;;;;;27.19;52.47;94240.78;5090611;28;20255;-71
2022/08/23 10:32:45;;;;;;;9.82;7.85;;;;;;;27.24;52.58;94229.06;5071152;28;20191;-71
2022/08/23 10:35:32;;;;;;;10.27;7.88;;;;;;;26.55;54.91;94237.81;5086886;28;20186;-71
2022/08/23 10:38:19;;;;;;;13.50;8.48;;;;;;;26.88;53.85;94230.13;5091245;28;20643;-71
2022/08/23 10:40:54;;;;;;;9.60;7.70;;;;;;;27.26;52.27;94226.63;5078588;28;20645;-71
2022/08/23 10:43:33;;;;;;;10.70;8.02;;;;;;;27.38;53.27;94223.06;5090538;28;20610;-71
2022/08/23 10:46:02;;;;;;;10.85;8.38;;;;;;;26.71;54.81;94217.53;5090850;28;20191;-71
2022/08/23 10:48:32;;;;;;;12.80;8.80;;;;;;;26.30;54.01;94225.84;5090489;28;20297;-71
2022/08/23 10:51:02;;;;;;;10.93;7.90;;;;;;;25.99;54.29;94223.44;5090341;28;20222;-71
2022/08/23 10:53:36;;;;;;;12.38;8.27;;;;;;;26.34;54.89;94215.41;5070507;28;20660;-71
2022/08/23 10:56:05;;;;;;;9.73;7.97;;;;;;;26.69;54.51;94219.97;5084921;28;20224;-71
2022/08/23 10:58:37;;;;;;;11.93;7.68;;;;;;;26.26;54.77;94219.56;5090250;28;20683;-71
2022/08/23 11:01:06;;;;;;;9.68;7.38;;;;;;;26.58;54.71;94221.50;5090515;28;20229;-72
2022/08/23 11:03:35;;;;;;;9.73;7.80;;;;;;;26.97;54.38;94212.03;5090313;28;20252;-71
2022/08/23 11:06:45;;;;;;;10.82;8.45;;;;;;;27.07;56.96;94219.25;5090110;28;20217;-71
2022/08/23 11:09:36;;;;;;;8.38;7.38;;;;;;;27.24;58.00;94227.06;5074416;28;20203;-71
2022/08/23 11:12:15;;;;;;;8.52;7.50;;;;;;;26.83;54.72;94225.09;5090254;28;20249;-70
2022/08/23 11:14:46;;;;;;;10.10;7.25;;;;;;;26.63;56.62;94232.84;5087236;28;20224;-72
2022/08/23 11:17:25;;;;;;;10.20;7.40;;;;;;;26.93;53.46;94223.25;5089770;28;20234;-70
2022/08/23 11:19:54;;;;;;;11.90;8.07;;;;;;;27.28;56.00;94221.41;5089451;28;20695;-71
2022/08/23 11:22:23;;;;;;;10.70;7.70;;;;;;;27.63;56.84;94218.72;5090421;28;20198;-72
2022/08/23 11:24:55;;;;;;;9.75;7.68;;;;;;;27.63;55.84;94218.72;5089991;28;20801;-71
2022/08/23 11:27:28;;;;;;;10.70;7.15;;;;;;;27.65;55.68;94221.84;5090490;28;20191;-71
2022/08/23 11:29:55;;;;;;;8.85;7.00;;;;;;;27.58;53.42;94228.44;5089953;28;20199;-71
2022/08/23 11:32:33;;;;;;;10.98;7.53;;;;;;;27.79;53.15;94221.38;5090099;28;20995;-71
2022/08/23 11:35:09;;;;;;;10.75;7.53;;;;;;;27.95;52.74;94212.88;5089701;28;20194;-72
2022/08/23 11:37:55;;;;;;;9.48;7.43;;;;;;;28.30;52.69;94208.88;5089634;28;20198;-71
2022/08/23 11:40:55;;;;;;;7.75;6.72;;;;;;;28.11;52.98;94209.94;5089393;28;20247;-72
2022/08/23 11:43:27;;;;;;;10.43;7.15;;;;;;;27.95;52.36;94201.75;5089772;28;20656;-72
2022/08/23 11:46:26;;;;;;;8.32;7.18;;;;;;;28.16;52.58;94201.00;5089486;28;20760;-72
2022/08/23 11:49:11;;;;;;;9.80;7.53;;;;;;;28.03;52.24;94202.25;5078570;28;20195;-71